createdAt,value
2022-08-03T00:02:19.614Z,12.00
2022-08-03T00:04:47.492Z,11.67
2022-08-03T00:07:15.953Z,11.00
2022-08-03T00:09:43.789Z,11.33
2022-08-03T00:12:11.862Z,11.67
2022-08-03T00:14:39.798Z,10.67
2022-08-03T00:17:07.826Z,12.00
2022-08-03T00:19:35.765Z,11.00
2022-08-03T00:22:03.687Z,13.50
2022-08-03T00:24:31.652Z,11.33
2022-08-03T00:26:59.466Z,12.67
2022-08-03T00:29:27.326Z,12.00
2022-08-03T00:32:00.330Z,11.67
2022-08-03T00:34:36.652Z,12.00
2022-08-03T00:37:16.754Z,12.00
2022-08-03T00:39:47.259Z,11.67
2022-08-03T00:42:15.886Z,9.33
2022-08-03T00:44:44.846Z,11.00
2022-08-03T00:47:13.293Z,14.00
2022-08-03T00:49:42.114Z,13.33
2022-08-03T00:52:11.217Z,11.67
2022-08-03T00:54:39.924Z,11.00
2022-08-03T00:57:08.897Z,12.33
2022-08-03T00:59:38.489Z,11.33
2022-08-03T01:02:06.683Z,10.67
2022-08-03T01:05:30.964Z,12.33
2022-08-03T01:09:01.609Z,10.00
2022-08-03T01:12:06.601Z,10.67
2022-08-03T01:14:42.285Z,12.00
2022-08-03T01:17:31.284Z,10.00
2022-08-03T01:20:11.919Z,11.67
2022-08-03T01:22:50.128Z,11.00
2022-08-03T01:25:48.018Z,11.33
2022-08-03T01:28:56.220Z,12.00
2022-08-03T01:31:29.011Z,12.33
2022-08-03T01:34:02.379Z,10.67
2022-08-03T01:36:36.617Z,12.67
2022-08-03T01:39:09.472Z,15.00
2022-08-03T01:41:42.490Z,11.67
2022-08-03T01:44:29.379Z,11.33
2022-08-03T01:47:03.546Z,11.33
2022-08-03T01:49:44.613Z,11.50
2022-08-03T01:52:14.565Z,10.33
2022-08-03T01:54:45.821Z,11.33
2022-08-03T01:57:15.538Z,12.00
2022-08-03T01:59:45.992Z,13.33
2022-08-03T02:02:33.424Z,12.67
2022-08-03T02:05:05.925Z,10.00
2022-08-03T02:07:42.160Z,12.00
2022-08-03T02:10:13.298Z,13.00
2022-08-03T02:12:45.964Z,13.33
2022-08-03T02:15:16.816Z,12.33
2022-08-03T02:17:47.413Z,11.67
2022-08-03T02:20:16.869Z,12.50
2022-08-03T02:22:46.570Z,11.00
2022-08-03T02:25:16.015Z,13.00
2022-08-03T02:27:53.052Z,13.50
2022-08-03T02:30:22.753Z,13.67
2022-08-03T02:32:55.760Z,12.33
2022-08-03T02:35:26.779Z,11.00
2022-08-03T02:38:01.161Z,12.00
2022-08-03T02:40:31.568Z,11.00
2022-08-03T02:43:03.895Z,12.00
2022-08-03T02:45:36.037Z,13.67
2022-08-03T02:48:06.983Z,12.33
2022-08-03T02:50:35.275Z,13.67
2022-08-03T02:53:04.322Z,14.00
2022-08-03T02:55:35.901Z,13.00
2022-08-03T02:58:13.361Z,12.33
2022-08-03T03:00:44.044Z,13.33
2022-08-03T03:03:13.095Z,11.00
2022-08-03T03:05:55.201Z,14.33
2022-08-03T03:08:28.823Z,11.00
2022-08-03T03:10:59.559Z,10.33
2022-08-03T03:13:30.387Z,12.67
2022-08-03T03:16:02.640Z,12.67
2022-08-03T03:18:33.273Z,12.67
2022-08-03T03:21:04.655Z,14.33
2022-08-03T03:23:36.688Z,17.00
2022-08-03T03:26:05.985Z,16.33
2022-08-03T03:28:34.448Z,14.00
2022-08-03T03:31:04.150Z,15.00
2022-08-03T03:33:33.885Z,15.67
2022-08-03T03:36:02.585Z,15.33
2022-08-03T03:38:30.660Z,14.33
2022-08-03T03:40:59.721Z,18.00
2022-08-03T03:43:29.479Z,20.00
2022-08-03T03:45:58.467Z,18.67
2022-08-03T03:48:26.521Z,19.67
2022-08-03T03:50:54.564Z,19.50
2022-08-03T03:53:22.504Z,19.00
2022-08-03T03:55:57.939Z,17.00
2022-08-03T03:58:31.668Z,16.00
2022-08-03T04:01:00.515Z,16.00
2022-08-03T04:03:28.561Z,16.33
2022-08-03T04:06:16.058Z,14.50
2022-08-03T04:09:02.535Z,13.00
2022-08-03T04:11:41.834Z,14.67
2022-08-03T04:14:18.193Z,15.33
2022-08-03T04:16:57.371Z,15.67
2022-08-03T04:19:40.802Z,14.33
2022-08-03T04:22:16.320Z,13.33
2022-08-03T04:24:50.823Z,16.00
2022-08-03T04:27:23.572Z,14.00
2022-08-03T04:29:55.235Z,14.33
2022-08-03T04:32:26.415Z,14.00
2022-08-03T04:34:54.483Z,15.00
2022-08-03T04:37:33.376Z,12.00
2022-08-03T04:40:04.262Z,13.33
2022-08-03T04:42:33.996Z,15.00
2022-08-03T04:45:04.302Z,16.33
2022-08-03T04:47:36.378Z,16.67
2022-08-03T04:50:10.401Z,15.33
2022-08-03T04:52:42.263Z,18.00
2022-08-03T04:55:10.364Z,15.67
2022-08-03T04:57:38.207Z,16.33
2022-08-03T05:00:06.993Z,16.33
2022-08-03T05:02:35.168Z,17.33
2022-08-03T05:05:02.953Z,19.00
2022-08-03T05:07:35.431Z,17.33
2022-08-03T05:10:15.771Z,16.67
2022-08-03T05:12:47.754Z,17.33
2022-08-03T05:15:16.031Z,15.33
2022-08-03T05:17:44.092Z,16.33
2022-08-03T05:20:12.612Z,14.33
2022-08-03T05:22:40.444Z,17.00
2022-08-03T05:25:08.318Z,21.33
2022-08-03T05:27:36.412Z,19.33
2022-08-03T05:30:31.078Z,17.33
2022-08-03T05:32:53.600Z,17.33
2022-08-03T05:35:57.860Z,18.67
2022-08-03T05:38:09.597Z,18.33
2022-08-03T05:40:38.480Z,17.00
2022-08-03T05:43:07.338Z,20.00
2022-08-03T05:45:37.206Z,18.67
2022-08-03T05:48:06.244Z,16.00
2022-08-03T05:50:34.137Z,18.00
2022-08-03T05:53:02.274Z,17.33
2022-08-03T05:55:30.369Z,16.33
2022-08-03T05:57:58.309Z,14.33
2022-08-03T06:00:26.738Z,18.67
2022-08-03T06:02:54.862Z,20.33
2022-08-03T06:05:22.599Z,22.33
2022-08-03T06:07:50.458Z,19.33
2022-08-03T06:10:37.242Z,21.33
2022-08-03T06:13:05.964Z,21.67
2022-08-03T06:15:35.476Z,18.67
2022-08-03T06:18:03.484Z,22.00
2022-08-03T06:20:31.356Z,18.67
2022-08-03T06:23:01.370Z,18.67
2022-08-03T06:25:29.485Z,18.67
2022-08-03T06:27:57.434Z,20.00
2022-08-03T06:30:25.651Z,19.00
2022-08-03T06:32:53.473Z,20.00
2022-08-03T06:35:21.475Z,18.00
2022-08-03T06:37:51.043Z,17.00
2022-08-03T06:40:24.417Z,18.33
2022-08-03T06:42:52.560Z,16.67
2022-08-03T06:45:20.597Z,16.33
2022-08-03T06:47:48.508Z,15.67
2022-08-03T06:50:22.961Z,16.67
2022-08-03T06:52:54.004Z,15.67
2022-08-03T06:55:22.075Z,17.33
2022-08-03T06:57:49.955Z,14.67
2022-08-03T07:00:18.154Z,14.67
2022-08-03T07:02:46.339Z,16.50
2022-08-03T07:05:15.793Z,15.00
2022-08-03T07:07:43.953Z,14.25
2022-08-03T07:10:11.840Z,16.00
2022-08-03T07:12:55.875Z,16.67
2022-08-03T07:15:54.047Z,12.00
2022-08-03T07:18:13.558Z,13.00
2022-08-03T07:20:41.486Z,11.67
2022-08-03T07:23:09.959Z,11.00
2022-08-03T07:25:47.090Z,13.67
2022-08-03T07:28:15.035Z,14.33
2022-08-03T07:30:42.807Z,12.00
2022-08-03T07:33:10.611Z,10.33
2022-08-03T07:35:38.995Z,14.00
2022-08-03T07:38:06.854Z,15.33
2022-08-03T07:40:35.032Z,13.33
2022-08-03T07:43:03.811Z,12.00
2022-08-03T07:45:31.861Z,11.00
2022-08-03T07:48:00.255Z,10.67
2022-08-03T07:50:28.247Z,10.00
2022-08-03T07:52:57.929Z,11.00
2022-08-03T07:55:27.999Z,9.00
2022-08-03T07:58:07.668Z,8.50
2022-08-03T08:00:36.635Z,10.50
2022-08-03T08:03:04.924Z,7.00
2022-08-03T08:05:32.854Z,7.00
2022-08-03T08:08:01.811Z,9.00
2022-08-03T08:10:30.681Z,9.33
2022-08-03T08:12:59.375Z,9.00
2022-08-03T08:15:27.783Z,11.50
2022-08-03T08:17:58.913Z,10.00
2022-08-03T08:20:32.965Z,11.00
2022-08-03T08:23:09.539Z,9.00
2022-08-03T08:25:56.557Z,7.00
2022-08-03T08:28:30.435Z,8.00
2022-08-03T08:31:01.946Z,10.00
2022-08-03T08:36:18.096Z,10.50
2022-08-03T08:38:46.371Z,11.00
2022-08-03T08:41:15.439Z,8.00
2022-08-03T08:43:43.624Z,9.00
2022-08-03T08:46:13.118Z,10.00
2022-08-03T08:48:53.151Z,9.00
2022-08-03T08:51:22.638Z,10.00
2022-08-03T08:53:57.945Z,8.33
2022-08-03T08:56:26.648Z,10.00
2022-08-03T08:58:59.164Z,9.00
2022-08-03T09:01:28.375Z,8.00
2022-08-03T09:03:56.453Z,10.00
2022-08-03T09:06:24.754Z,8.33
2022-08-03T09:08:52.627Z,9.00
2022-08-03T09:11:57.651Z,10.00
2022-08-03T09:14:33.687Z,9.33
2022-08-03T09:17:02.367Z,9.00
2022-08-03T09:19:32.353Z,12.50
2022-08-03T09:22:17.470Z,10.67
2022-08-03T09:25:23.365Z,11.00
2022-08-03T09:27:49.087Z,9.67
2022-08-03T09:30:34.561Z,11.00
2022-08-03T09:33:11.456Z,10.00
2022-08-03T09:35:54.172Z,9.00
2022-08-03T09:38:26.374Z,13.00
2022-08-03T09:40:59.490Z,14.33
2022-08-03T09:43:29.016Z,11.67
2022-08-03T09:46:04.412Z,12.67
2022-08-03T09:48:35.562Z,12.33
2022-08-03T09:51:14.402Z,12.33
2022-08-03T09:53:58.694Z,15.33
2022-08-03T09:56:40.358Z,12.00
2022-08-03T09:59:09.385Z,11.33
2022-08-03T10:01:38.912Z,13.33
2022-08-03T10:04:11.250Z,13.00
2022-08-03T10:06:39.047Z,12.00
2022-08-03T10:09:12.129Z,10.67
2022-08-03T10:11:42.636Z,9.67
2022-08-03T10:14:19.031Z,9.33
2022-08-03T10:16:48.304Z,11.00
2022-08-03T10:19:16.474Z,9.67
2022-08-03T10:22:03.541Z,12.00
2022-08-03T10:24:35.404Z,9.67
2022-08-03T10:27:07.524Z,12.33
2022-08-03T10:29:39.077Z,13.33
2022-08-03T10:32:19.238Z,15.00
2022-08-03T10:34:50.654Z,12.00
2022-08-03T10:37:32.364Z,10.33
2022-08-03T10:40:01.028Z,10.00
2022-08-03T10:42:31.555Z,11.00
2022-08-03T10:45:05.601Z,10.67
2022-08-03T10:47:35.107Z,10.00
2022-08-03T10:50:03.620Z,9.33
2022-08-03T10:52:39.506Z,12.00
2022-08-03T10:55:49.168Z,9.33
2022-08-03T10:58:37.062Z,15.00
2022-08-03T11:01:09.847Z,12.33
2022-08-03T11:03:52.925Z,14.33
2022-08-03T11:06:24.343Z,12.33
2022-08-03T11:09:10.299Z,11.50
2022-08-03T11:11:40.996Z,12.67
2022-08-03T11:14:20.690Z,11.00
2022-08-03T11:17:07.883Z,12.00
2022-08-03T11:19:56.591Z,10.33
2022-08-03T11:22:51.029Z,11.00
2022-08-03T11:25:53.561Z,11.50
2022-08-03T11:28:27.114Z,12.00
2022-08-03T11:30:55.090Z,13.67
2022-08-03T11:33:30.678Z,10.00
2022-08-03T11:36:01.090Z,11.00
2022-08-03T11:38:28.894Z,9.00
2022-08-03T11:40:56.788Z,12.00
2022-08-03T11:43:31.997Z,10.50
2022-08-03T11:46:04.241Z,11.33
2022-08-03T11:48:37.584Z,13.67
2022-08-03T11:51:18.462Z,11.00
2022-08-03T11:53:48.013Z,13.00
2022-08-03T11:56:15.906Z,9.33
2022-08-03T11:59:19.211Z,11.33
2022-08-03T12:01:38.775Z,11.00
2022-08-03T12:04:07.286Z,12.67
2022-08-03T12:06:55.128Z,15.00
2022-08-03T12:09:23.027Z,15.00
2022-08-03T12:12:00.345Z,15.00
2022-08-03T12:14:49.729Z,15.33
2022-08-03T12:17:18.851Z,13.33
2022-08-03T12:19:47.219Z,14.67
2022-08-03T12:22:16.876Z,16.33
2022-08-03T12:24:47.577Z,12.67
2022-08-03T12:27:29.942Z,13.00
2022-08-03T12:29:59.471Z,16.00
2022-08-03T12:32:29.710Z,17.00
2022-08-03T12:35:01.224Z,13.67
2022-08-03T12:37:31.849Z,15.67
2022-08-03T12:40:07.779Z,13.67
2022-08-03T12:42:39.964Z,14.33
2022-08-03T12:45:32.022Z,14.33
2022-08-03T12:48:01.729Z,12.00
2022-08-03T12:50:31.374Z,18.33
2022-08-03T12:53:07.907Z,17.00
2022-08-03T12:55:57.244Z,14.00
2022-08-03T12:58:34.145Z,15.33
2022-08-03T13:01:10.085Z,15.33
2022-08-03T13:03:50.314Z,19.00
2022-08-03T13:06:23.071Z,12.33
2022-08-03T13:09:02.817Z,14.33
2022-08-03T13:11:55.364Z,14.00
2022-08-03T13:14:20.115Z,13.00
2022-08-03T13:16:49.600Z,12.00
2022-08-03T13:19:17.754Z,16.00
2022-08-03T13:22:01.851Z,12.00
2022-08-03T13:24:33.737Z,10.00
2022-08-03T13:27:22.018Z,14.00
2022-08-03T13:29:53.015Z,16.67
2022-08-03T13:32:21.426Z,15.67
2022-08-03T13:34:49.492Z,17.00
2022-08-03T13:37:17.524Z,14.67
2022-08-03T13:39:57.400Z,15.00
2022-08-03T13:42:33.613Z,13.00
2022-08-03T13:45:02.482Z,13.33
2022-08-03T13:47:30.376Z,15.33
2022-08-03T13:50:01.468Z,19.00
2022-08-03T13:52:32.013Z,16.67
2022-08-03T13:55:00.535Z,14.50
2022-08-03T13:58:04.969Z,12.67
2022-08-03T14:00:28.141Z,16.33
2022-08-03T14:03:05.323Z,15.00
2022-08-03T14:05:38.802Z,14.67
2022-08-03T14:08:08.026Z,17.00
2022-08-03T14:10:38.099Z,15.00
2022-08-03T14:13:06.256Z,21.00
2022-08-03T14:15:38.021Z,15.00
2022-08-03T14:18:12.987Z,17.50
2022-08-03T14:20:49.986Z,18.33
2022-08-03T14:23:19.597Z,14.33
2022-08-03T14:25:52.011Z,18.33
2022-08-03T14:28:23.232Z,13.50
2022-08-03T14:30:58.657Z,17.00
2022-08-03T14:33:28.454Z,14.00
2022-08-03T14:35:56.961Z,17.67
2022-08-03T14:38:25.596Z,14.33
2022-08-03T14:40:53.529Z,14.50
2022-08-03T14:43:21.546Z,15.67
2022-08-03T14:45:53.395Z,17.00
2022-08-03T14:50:33.074Z,16.00
2022-08-03T14:51:10.314Z,14.00
2022-08-03T14:53:38.211Z,16.67
2022-08-03T14:56:10.142Z,13.50
2022-08-03T14:58:38.933Z,17.50
2022-08-03T15:02:03.220Z,17.00
2022-08-03T15:03:55.506Z,12.00
2022-08-03T15:06:23.427Z,18.00
2022-08-03T15:09:13.933Z,16.67
2022-08-03T15:11:39.172Z,17.00
2022-08-03T15:14:09.348Z,17.00
2022-08-03T15:16:38.866Z,17.00
2022-08-03T15:19:59.480Z,15.33
2022-08-03T15:21:56.304Z,14.50
2022-08-03T15:24:24.190Z,13.00
2022-08-03T15:26:52.972Z,14.00
2022-08-03T15:30:07.314Z,15.00
2022-08-03T15:32:09.654Z,17.33
2022-08-03T15:34:37.816Z,16.33
2022-08-03T15:37:16.447Z,18.33
2022-08-03T15:39:58.425Z,18.00
2022-08-03T15:42:30.175Z,16.00
2022-08-03T15:45:01.968Z,15.50
2022-08-03T15:47:34.024Z,17.00
2022-08-03T15:50:07.915Z,14.00
2022-08-03T15:52:40.303Z,17.33
2022-08-03T15:55:08.873Z,15.00
2022-08-03T15:59:03.267Z,13.00
2022-08-03T16:00:33.863Z,13.00
2022-08-03T16:03:02.617Z,16.33
2022-08-03T16:05:30.483Z,14.67
2022-08-03T16:08:03.537Z,17.00
2022-08-03T16:10:33.117Z,13.67
2022-08-03T16:13:01.143Z,14.67
2022-08-03T16:15:29.039Z,16.33
2022-08-03T16:17:56.969Z,14.67
2022-08-03T16:20:34.336Z,13.33
2022-08-03T16:23:10.656Z,14.67
2022-08-03T16:25:40.760Z,12.67
2022-08-03T16:28:13.835Z,13.00
2022-08-03T16:30:44.362Z,14.00
2022-08-03T16:33:17.388Z,19.00
2022-08-03T16:35:46.851Z,19.33
2022-08-03T16:38:18.889Z,17.00
2022-08-03T16:40:53.001Z,14.00
2022-08-03T16:43:24.975Z,15.67
2022-08-03T16:45:52.861Z,14.00
2022-08-03T16:48:20.875Z,15.00
2022-08-03T16:50:48.827Z,14.67
2022-08-03T16:53:18.667Z,17.33
2022-08-03T16:56:01.294Z,15.33
2022-08-03T16:58:41.161Z,14.67
2022-08-03T17:01:21.829Z,14.67
2022-08-03T17:04:02.619Z,11.67
2022-08-03T17:06:38.499Z,12.00
2022-08-03T17:09:20.774Z,11.00
2022-08-03T17:11:51.117Z,12.00
2022-08-03T17:14:22.935Z,12.67
2022-08-03T17:17:01.630Z,14.00
2022-08-03T17:19:32.316Z,13.67
2022-08-03T17:22:08.933Z,15.00
2022-08-03T17:24:41.044Z,14.67
2022-08-03T17:28:42.325Z,12.33
2022-08-03T17:30:07.548Z,16.00
2022-08-03T17:32:42.378Z,14.67
2022-08-03T17:35:11.285Z,14.50
2022-08-03T17:37:57.393Z,14.33
2022-08-03T17:40:31.544Z,13.00
2022-08-03T17:43:00.991Z,13.67
2022-08-03T17:45:52.244Z,14.00
2022-08-03T17:48:18.788Z,12.00
2022-08-03T17:50:51.575Z,14.00
2022-08-03T17:53:28.232Z,15.67
2022-08-03T17:56:44.354Z,17.00
2022-08-03T17:59:50.545Z,13.33
2022-08-03T18:02:49.666Z,14.00
2022-08-03T18:05:21.775Z,13.33
2022-08-03T18:08:01.520Z,13.00
2022-08-03T18:10:36.367Z,12.00
2022-08-03T18:13:30.051Z,16.00
2022-08-03T18:16:04.720Z,16.50
2022-08-03T18:18:39.473Z,17.00
2022-08-03T18:21:16.974Z,19.00
2022-08-03T18:23:50.083Z,19.67
2022-08-03T18:26:19.259Z,20.33
2022-08-03T18:28:52.711Z,18.33
2022-08-03T18:31:59.521Z,19.00
2022-08-03T18:34:33.032Z,18.00
2022-08-03T18:37:07.201Z,15.33
2022-08-03T18:39:49.554Z,16.00
2022-08-03T18:42:19.671Z,14.33
2022-08-03T18:44:54.298Z,14.67
2022-08-03T18:47:50.855Z,12.33
2022-08-03T18:50:23.604Z,14.00
2022-08-03T18:53:22.121Z,14.00
2022-08-03T18:56:21.827Z,11.33
2022-08-03T18:59:09.956Z,13.67
2022-08-03T19:02:00.682Z,14.00
2022-08-03T19:04:47.670Z,13.67
2022-08-03T19:07:27.756Z,12.33
2022-08-03T19:10:11.325Z,12.67
2022-08-03T19:13:01.223Z,13.00
2022-08-03T19:15:36.586Z,13.33
2022-08-03T19:18:10.476Z,12.00
2022-08-03T19:20:40.341Z,15.00
2022-08-03T19:23:08.583Z,15.33
2022-08-03T19:25:40.277Z,14.00
2022-08-03T19:28:08.948Z,15.00
2022-08-03T19:30:40.232Z,14.67
2022-08-03T19:33:16.256Z,14.33
2022-08-03T19:35:55.795Z,15.00
2022-08-03T19:38:28.335Z,16.00
2022-08-03T19:41:01.577Z,16.00
2022-08-03T19:43:53.074Z,21.67
2022-08-03T19:46:30.369Z,20.33
2022-08-03T19:49:15.399Z,19.67
2022-08-03T19:51:58.382Z,20.33
2022-08-03T19:54:53.367Z,18.00
2022-08-03T19:57:27.553Z,18.00
2022-08-03T19:59:56.711Z,16.67
2022-08-03T20:02:26.343Z,16.67
2022-08-03T20:04:57.090Z,13.67
2022-08-03T20:07:27.433Z,16.33
2022-08-03T20:12:45.918Z,13.00
2022-08-03T20:15:14.086Z,16.00
2022-08-03T20:17:54.617Z,16.33
2022-08-03T20:20:31.350Z,16.67
2022-08-03T20:23:06.634Z,16.33
2022-08-03T20:25:57.075Z,16.33
2022-08-03T20:28:31.970Z,15.67
2022-08-03T20:31:00.189Z,16.00
2022-08-03T20:36:19.017Z,15.50
2022-08-03T20:38:48.173Z,17.00
2022-08-03T20:41:17.331Z,16.67
2022-08-03T20:43:46.479Z,18.67
2022-08-03T20:46:30.007Z,16.67
2022-08-03T20:49:05.339Z,20.00
2022-08-03T20:51:52.538Z,19.67
2022-08-03T20:54:29.184Z,18.33
2022-08-03T20:57:04.182Z,18.33
2022-08-03T20:59:50.179Z,19.33
2022-08-03T21:02:29.097Z,19.00
2022-08-03T21:05:08.229Z,18.33
2022-08-03T21:07:45.506Z,19.00
2022-08-03T21:10:32.316Z,19.33
2022-08-03T21:13:08.690Z,16.00
2022-08-03T21:13:13.491Z,19.67
2022-08-03T21:13:17.025Z,17.67
2022-08-03T21:16:11.786Z,20.33
2022-08-03T21:18:49.714Z,19.67
2022-08-03T21:21:22.282Z,18.33
2022-08-03T21:23:52.970Z,18.33
2022-08-03T21:26:23.133Z,17.00
2022-08-03T21:28:53.973Z,20.00
2022-08-03T21:31:24.931Z,22.33
2022-08-03T21:34:00.095Z,22.33
2022-08-03T21:36:30.632Z,23.00
2022-08-03T21:38:59.544Z,24.50
2022-08-03T21:41:30.655Z,23.33
2022-08-03T21:43:59.257Z,23.50
2022-08-03T21:46:33.987Z,20.33
2022-08-03T21:50:05.504Z,22.00
2022-08-03T21:51:56.943Z,22.00
2022-08-03T21:54:31.267Z,24.00
2022-08-03T21:57:04.912Z,23.67
2022-08-03T21:59:38.063Z,24.00
2022-08-03T22:02:15.607Z,21.00
2022-08-03T22:04:56.970Z,22.00
2022-08-03T22:07:27.493Z,22.00
2022-08-03T22:09:56.764Z,20.33
2022-08-03T22:12:26.059Z,21.00
2022-08-03T22:15:01.290Z,22.00
2022-08-03T22:17:55.571Z,20.33
2022-08-03T22:20:22.999Z,21.00
2022-08-03T22:22:55.931Z,22.33
2022-08-03T22:25:29.197Z,22.33
2022-08-03T22:28:00.420Z,24.00
2022-08-03T22:30:31.742Z,23.00
2022-08-03T22:33:01.413Z,25.33
2022-08-03T22:35:31.612Z,23.67
2022-08-03T22:38:01.509Z,24.33
2022-08-03T22:40:29.804Z,28.33
2022-08-03T22:42:57.785Z,27.33
2022-08-03T22:46:06.139Z,25.67
2022-08-03T22:48:14.030Z,26.33
2022-08-03T22:50:44.016Z,22.33
2022-08-03T22:53:17.611Z,25.33
2022-08-03T22:55:51.894Z,23.00
2022-08-03T22:58:21.026Z,22.00
2022-08-03T23:00:58.526Z,22.00
2022-08-03T23:04:00.661Z,23.67
2022-08-03T23:06:26.457Z,22.67
2022-08-03T23:08:55.283Z,22.33
2022-08-03T23:11:24.465Z,22.00
2022-08-03T23:13:54.624Z,20.33
2022-08-03T23:16:28.491Z,18.00
2022-08-03T23:18:59.678Z,19.00
2022-08-03T23:22:00.561Z,18.67
2022-08-03T23:24:29.464Z,20.33
2022-08-03T23:26:58.609Z,18.33
2022-08-03T23:29:26.592Z,20.33
2022-08-03T23:31:56.395Z,19.67
2022-08-03T23:34:43.786Z,19.33
2022-08-03T23:37:15.324Z,15.00
2022-08-03T23:39:48.169Z,16.67
2022-08-03T23:42:20.750Z,19.00
2022-08-03T23:44:55.668Z,17.33
2022-08-03T23:47:23.894Z,15.33
2022-08-03T23:49:52.104Z,17.67
2022-08-03T23:52:28.074Z,17.33
2022-08-03T23:55:03.331Z,15.33
2022-08-03T23:57:58.043Z,17.00
